Time;durP1;ratioP1;P1;durP2;ratioP2;P2;SDS_P1;SDS_P2;PMS_P1;PMS_P2;Temp;Humidity;BMP_temperature;BMP_pressure;BME280_temperature;BME280_humidity;BME280_pressure;Samples;Min_cycle;Max_cycle;Signal;HPM_P1;HPM_P2
2021/11/10 00:00:44;;;;;;;0.40;0.30;;;;;;;5.62;100.00;102247.72;5116031;28;20443;-69
2021/11/10 00:03:11;;;;;;;3.17;2.87;;;;;;;5.50;100.00;102256.56;5115627;28;20928;-69
2021/11/10 00:05:37;;;;;;;1.23;1.23;;;;;;;5.47;100.00;102250.81;5115856;28;20451;-69
2021/11/10 00:08:04;;;;;;;0.40;0.40;;;;;;;5.39;100.00;102253.78;5115858;28;20444;-70
2021/11/10 00:10:31;;;;;;;2.53;2.43;;;;;;;5.26;100.00;102252.91;5115809;28;20500;-69
2021/11/10 00:15:39;;;;;;;0.40;0.30;;;;;;;5.07;100.00;102240.53;5114647;28;20563;-70
2021/11/10 00:18:06;;;;;;;0.40;0.30;;;;;;;5.10;100.00;102240.09;5115643;28;20508;-70
2021/11/10 00:20:32;;;;;;;0.40;0.30;;;;;;;5.10;100.00;102245.47;5115305;28;20440;-69
2021/11/10 00:22:59;;;;;;;0.40;0.30;;;;;;;5.05;100.00;102243.44;5115518;28;20439;-70
2021/11/10 00:25:25;;;;;;;7.30;4.20;;;;;;;5.01;100.00;102236.06;5115476;28;20460;-69
2021/11/10 00:27:52;;;;;;;0.50;0.50;;;;;;;4.94;100.00;102243.34;5115110;28;20963;-70
2021/11/10 00:30:20;;;;;;;5.53;5.10;;;;;;;4.89;99.84;102245.88;5115118;28;20964;-70
2021/11/10 00:32:46;;;;;;;0.40;0.30;;;;;;;4.89;100.00;102248.56;5115389;28;20447;-70
2021/11/10 00:35:13;;;;;;;0.40;0.30;;;;;;;4.83;100.00;102254.84;5115087;28;20483;-70
2021/11/10 00:37:42;;;;;;;0.40;0.30;;;;;;;4.88;100.00;102247.75;5115320;28;20466;-70
2021/11/10 00:40:09;;;;;;;0.60;0.57;;;;;;;4.88;100.00;102255.81;5115307;28;20436;-70
2021/11/10 00:42:36;;;;;;;0.40;0.30;;;;;;;4.96;100.00;102260.06;5115217;28;20444;-70
2021/11/10 00:45:03;;;;;;;0.40;0.30;;;;;;;4.88;100.00;102253.13;5114695;28;20832;-69
2021/11/10 00:47:31;;;;;;;0.40;0.30;;;;;;;4.86;100.00;102259.75;5115109;28;20446;-70
2021/11/10 00:49:57;;;;;;;2.20;2.10;;;;;;;4.77;100.00;102254.66;5115001;28;20436;-70
2021/11/10 00:52:24;;;;;;;0.40;0.20;;;;;;;4.75;100.00;102253.25;5115024;28;20436;-69
2021/11/10 00:54:51;;;;;;;2.07;1.87;;;;;;;4.76;100.00;102252.19;5114780;28;20466;-69
2021/11/10 00:57:17;;;;;;;0.40;0.30;;;;;;;4.82;100.00;102243.25;5114064;28;20505;-70
2021/11/10 00:59:44;;;;;;;0.40;0.30;;;;;;;4.77;100.00;102237.72;5114880;28;20427;-69
2021/11/10 01:02:10;;;;;;;0.40;0.30;;;;;;;4.78;100.00;102245.56;5114745;28;20444;-69
2021/11/10 01:04:39;;;;;;;0.40;0.30;;;;;;;4.73;100.00;102242.72;5114735;28;20486;-69
2021/11/10 01:07:06;;;;;;;0.40;0.30;;;;;;;4.73;100.00;102241.88;5114644;28;20435;-69
2021/11/10 01:09:39;;;;;;;3.00;2.83;;;;;;;4.62;100.00;102235.41;5114690;28;20450;-69
2021/11/10 01:12:06;;;;;;;0.40;0.20;;;;;;;4.63;100.00;102238.91;5114419;28;20437;-69
2021/11/10 01:14:33;;;;;;;17.73;2.47;;;;;;;4.45;100.00;102239.66;5114544;28;20420;-69
2021/11/10 01:16:59;;;;;;;0.40;0.30;;;;;;;4.45;99.66;102237.00;5114377;28;20480;-69
2021/11/10 01:19:26;;;;;;;0.40;0.30;;;;;;;4.35;99.45;102223.25;5114414;28;20447;-69
2021/11/10 01:21:54;;;;;;;0.40;0.27;;;;;;;4.31;99.41;102222.88;5114384;28;20497;-69
2021/11/10 01:24:20;;;;;;;0.40;0.30;;;;;;;4.14;100.00;102211.03;5114241;28;20442;-69
2021/11/10 01:26:47;;;;;;;0.40;0.20;;;;;;;4.16;99.93;102209.78;5114332;28;20440;-69
2021/11/10 01:29:13;;;;;;;0.40;0.20;;;;;;;4.18;99.42;102209.56;5114230;28;20439;-69
2021/11/10 01:31:40;;;;;;;0.40;0.27;;;;;;;4.01;100.00;102204.72;5114257;28;20450;-69
2021/11/10 01:34:08;;;;;;;0.40;0.30;;;;;;;4.05;100.00;102205.09;5114141;28;20444;-69
2021/11/10 01:36:34;;;;;;;0.40;0.30;;;;;;;3.95;100.00;102205.59;5113985;28;20519;-69
2021/11/10 01:39:04;;;;;;;0.40;0.30;;;;;;;3.92;100.00;102194.47;5114063;28;20466;-69
2021/11/10 01:41:30;;;;;;;0.40;0.30;;;;;;;4.00;100.00;102196.91;5113991;28;20435;-69
2021/11/10 01:43:57;;;;;;;0.40;0.30;;;;;;;4.06;100.00;102190.66;5113553;28;20486;-69
2021/11/10 01:46:23;;;;;;;0.40;0.30;;;;;;;4.00;100.00;102191.53;5113489;28;21037;-68
2021/11/10 01:48:50;;;;;;;2.10;2.00;;;;;;;3.86;100.00;102192.66;5113654;28;20447;-69
2021/11/10 01:51:16;;;;;;;0.40;0.30;;;;;;;3.82;100.00;102188.78;5114151;28;20435;-69
2021/11/10 01:53:43;;;;;;;0.40;0.20;;;;;;;3.73;100.00;102186.34;5113917;28;20440;-69
2021/11/10 01:56:10;;;;;;;0.40;0.30;;;;;;;3.81;100.00;102174.56;5113713;28;20484;-69
2021/11/10 01:58:37;;;;;;;0.63;0.63;;;;;;;3.87;100.00;102162.97;5113837;28;20447;-69
2021/11/10 02:01:03;;;;;;;0.40;0.30;;;;;;;3.88;100.00;102166.47;5113838;28;20443;-69
2021/11/10 02:03:30;;;;;;;0.40;0.30;;;;;;;3.92;100.00;102155.09;5113758;28;20443;-70
2021/11/10 02:05:57;;;;;;;0.40;0.30;;;;;;;3.80;100.00;102146.91;5113720;28;20513;-69
2021/11/10 02:08:23;;;;;;;0.40;0.30;;;;;;;3.77;100.00;102152.72;5113608;28;20442;-69
2021/11/10 02:10:50;;;;;;;0.40;0.23;;;;;;;3.65;100.00;102156.31;5113674;28;20447;-70
2021/11/10 02:13:18;;;;;;;0.40;0.30;;;;;;;3.64;100.00;102152.81;5113290;28;20463;-69
2021/11/10 02:15:45;;;;;;;0.40;0.20;;;;;;;3.74;100.00;102153.16;5113522;28;20536;-70
2021/11/10 02:18:11;;;;;;;0.40;0.20;;;;;;;3.73;100.00;102154.19;5113622;28;20492;-70
2021/11/10 02:20:38;;;;;;;0.40;0.30;;;;;;;3.86;100.00;102152.47;5113584;28;20439;-70
2021/11/10 02:23:07;;;;;;;0.40;0.30;;;;;;;3.88;100.00;102150.38;5113240;28;20823;-69
2021/11/10 02:25:34;;;;;;;0.40;0.30;;;;;;;3.74;100.00;102136.25;5113244;28;20916;-69
2021/11/10 02:28:01;;;;;;;0.40;0.20;;;;;;;3.71;100.00;102140.19;5113521;28;20825;-70
2021/11/10 02:30:28;;;;;;;0.40;0.30;;;;;;;3.79;100.00;102134.56;5113513;28;20435;-69
2021/11/10 02:32:57;;;;;;;0.40;0.30;;;;;;;3.74;100.00;102131.72;5113144;28;20955;-69
2021/11/10 02:35:26;;;;;;;0.40;0.30;;;;;;;3.86;100.00;102131.03;5113273;28;20486;-69
2021/11/10 02:37:55;;;;;;;0.40;0.30;;;;;;;3.91;100.00;102126.66;5113094;28;20955;-69
2021/11/10 02:40:24;;;;;;;0.40;0.30;;;;;;;3.81;100.00;102123.66;5113447;28;20466;-69
2021/11/10 02:42:52;;;;;;;0.50;0.50;;;;;;;3.85;100.00;102114.13;5113372;28;20436;-69
2021/11/10 02:45:19;;;;;;;0.40;0.30;;;;;;;3.76;100.00;102118.09;5113308;28;20471;-69
2021/11/10 02:47:46;;;;;;;0.77;0.77;;;;;;;3.70;100.00;102117.09;5113020;28;20933;-68
2021/11/10 02:50:12;;;;;;;1.07;1.00;;;;;;;3.69;100.00;102111.97;5113325;28;20447;-68
2021/11/10 02:52:39;;;;;;;0.80;0.80;;;;;;;3.55;99.87;102105.88;5113137;28;20444;-70
2021/11/10 02:55:07;;;;;;;0.40;0.30;;;;;;;3.64;99.21;102103.78;5113187;28;20455;-70
2021/11/10 02:57:35;;;;;;;0.40;0.30;;;;;;;3.58;99.04;102104.63;5113174;28;20919;-70
2021/11/10 03:00:02;;;;;;;0.40;0.30;;;;;;;3.44;98.62;102096.66;5112910;28;20940;-71
2021/11/10 03:02:30;;;;;;;0.40;0.30;;;;;;;3.35;99.18;102091.78;5113219;28;20485;-71
2021/11/10 03:04:58;;;;;;;0.40;0.30;;;;;;;3.27;100.00;102085.66;5113091;28;20468;-71
2021/11/10 03:07:25;;;;;;;0.40;0.30;;;;;;;3.19;100.00;102093.97;5113143;28;20431;-71
2021/11/10 03:09:52;;;;;;;0.40;0.30;;;;;;;3.16;99.89;102086.34;5113139;28;20458;-70
2021/11/10 03:12:19;;;;;;;0.40;0.30;;;;;;;3.06;100.00;102088.66;5113090;28;20482;-71
2021/11/10 03:14:48;;;;;;;0.40;0.20;;;;;;;3.10;100.00;102094.41;5113072;28;20499;-71
2021/11/10 03:17:17;;;;;;;0.40;0.30;;;;;;;3.00;100.00;102086.84;5112950;28;20561;-71
2021/11/10 03:19:44;;;;;;;0.40;0.30;;;;;;;3.03;100.00;102086.41;5112679;28;20877;-70
2021/11/10 03:22:12;;;;;;;0.40;0.30;;;;;;;2.97;100.00;102087.28;5115895;28;20538;-70
2021/11/10 03:24:39;;;;;;;0.40;0.27;;;;;;;3.04;100.00;102080.03;5115781;28;20462;-71
2021/11/10 03:27:07;;;;;;;0.40;0.20;;;;;;;2.95;100.00;102081.31;5115699;28;20446;-70
2021/11/10 03:29:34;;;;;;;0.40;0.30;;;;;;;3.04;100.00;102085.38;5115776;28;20999;-70
2021/11/10 03:32:02;;;;;;;0.40;0.30;;;;;;;3.09;100.00;102077.53;5115797;28;20450;-70
2021/11/10 03:34:29;;;;;;;0.57;0.57;;;;;;;3.04;100.00;102086.19;5115559;28;20447;-71
2021/11/10 03:36:55;;;;;;;0.40;0.20;;;;;;;3.13;100.00;102072.56;5115549;28;20604;-70
2021/11/10 03:39:21;;;;;;;0.40;0.30;;;;;;;3.14;100.00;102075.00;5115310;28;20933;-71
2021/11/10 03:41:48;;;;;;;0.40;0.30;;;;;;;3.15;100.00;102071.31;5115493;28;20443;-70
2021/11/10 03:44:15;;;;;;;0.40;0.30;;;;;;;3.28;100.00;102073.94;5115501;28;20553;-70
2021/11/10 03:46:45;;;;;;;0.40;0.30;;;;;;;3.21;100.00;102075.00;5115359;28;20459;-70
2021/11/10 03:49:13;;;;;;;0.50;0.43;;;;;;;3.23;100.00;102079.09;5115318;28;20439;-70
2021/11/10 03:51:39;;;;;;;0.40;0.20;;;;;;;3.28;100.00;102079.28;5115312;28;20467;-71
2021/11/10 03:54:06;;;;;;;3.60;3.40;;;;;;;3.36;100.00;102072.81;5115251;28;20442;-71
2021/11/10 03:56:33;;;;;;;0.40;0.30;;;;;;;3.35;100.00;102076.53;5114980;28;20489;-71
2021/11/10 03:59:00;;;;;;;0.40;0.20;;;;;;;3.40;100.00;102078.56;5115102;28;20446;-71
2021/11/10 04:01:26;;;;;;;0.40;0.30;;;;;;;3.38;100.00;102080.66;5115080;28;20447;-71
2021/11/10 04:03:52;;;;;;;0.60;0.60;;;;;;;3.37;100.00;102079.03;5115027;28;20446;-71
2021/11/10 04:06:20;;;;;;;0.40;0.30;;;;;;;3.26;100.00;102075.16;5114905;28;20471;-71
2021/11/10 04:08:47;;;;;;;0.40;0.30;;;;;;;3.25;100.00;102071.66;5115094;28;20439;-71
2021/11/10 04:11:13;;;;;;;0.40;0.30;;;;;;;3.10;100.00;102070.31;5115051;28;20446;-71
2021/11/10 04:13:40;;;;;;;0.40;0.20;;;;;;;3.08;100.00;102081.22;5114610;28;20448;-71
2021/11/10 04:16:06;;;;;;;0.40;0.30;;;;;;;2.89;100.00;102068.78;5114728;28;20463;-71
2021/11/10 04:18:34;;;;;;;0.40;0.30;;;;;;;2.97;100.00;102072.03;5114705;28;20783;-71
2021/11/10 04:21:00;;;;;;;0.73;0.73;;;;;;;2.88;99.99;102065.28;5114807;28;20808;-70
2021/11/10 04:23:29;;;;;;;0.40;0.30;;;;;;;2.95;99.91;102066.06;5114896;28;20878;-71
2021/11/10 04:25:56;;;;;;;0.40;0.30;;;;;;;2.98;99.26;102075.53;5114498;28;20459;-71
2021/11/10 04:28:22;;;;;;;4.53;4.20;;;;;;;3.02;99.00;102071.41;5114613;28;20440;-70
2021/11/10 04:30:51;;;;;;;0.40;0.20;;;;;;;3.12;99.21;102076.28;5114177;28;21163;-70
2021/11/10 04:33:18;;;;;;;0.40;0.30;;;;;;;3.17;99.83;102074.59;5114381;28;20474;-70
2021/11/10 04:35:44;;;;;;;0.40;0.30;;;;;;;3.13;100.00;102073.38;5114268;28;20460;-70
2021/11/10 04:38:11;;;;;;;1.63;1.03;;;;;;;3.17;100.00;102077.28;5114299;28;20495;-70
2021/11/10 04:40:39;;;;;;;0.53;0.53;;;;;;;3.33;100.00;102080.50;5114233;28;20443;-70
2021/11/10 04:43:05;;;;;;;0.40;0.30;;;;;;;3.36;100.00;102075.50;5114243;28;20440;-70
2021/11/10 04:45:33;;;;;;;0.40;0.30;;;;;;;3.39;100.00;102080.44;5114148;28;20463;-70
2021/11/10 04:48:00;;;;;;;0.50;0.43;;;;;;;3.44;100.00;102082.47;5114010;28;20444;-70
2021/11/10 04:50:27;;;;;;;0.50;0.40;;;;;;;3.44;100.00;102069.06;5114003;28;20446;-70
2021/11/10 04:52:54;;;;;;;1.33;1.23;;;;;;;3.31;100.00;102061.13;5113662;28;20956;-70
2021/11/10 04:55:21;;;;;;;0.40;0.30;;;;;;;3.40;100.00;102062.50;5113520;28;20478;-70
2021/11/10 04:57:49;;;;;;;0.40;0.30;;;;;;;3.41;100.00;102065.00;5113449;28;21003;-70
2021/11/10 05:00:16;;;;;;;0.50;0.40;;;;;;;3.43;100.00;102059.41;5113755;28;20779;-70
2021/11/10 05:02:43;;;;;;;0.40;0.30;;;;;;;3.50;100.00;102076.25;5113488;28;20539;-70
2021/11/10 05:05:09;;;;;;;0.40;0.30;;;;;;;3.43;100.00;102078.16;5113411;28;20980;-70
2021/11/10 05:07:36;;;;;;;6.93;3.20;;;;;;;3.34;100.00;102074.91;5113616;28;20444;-70
2021/11/10 05:10:04;;;;;;;0.40;0.30;;;;;;;3.21;100.00;102070.47;5113401;28;20561;-70
2021/11/10 05:12:30;;;;;;;0.40;0.30;;;;;;;3.14;100.00;102072.34;5113171;28;20466;-70
2021/11/10 05:14:58;;;;;;;0.40;0.30;;;;;;;3.16;100.00;102066.78;5113467;28;20824;-70
2021/11/10 05:17:25;;;;;;;0.40;0.30;;;;;;;3.13;100.00;102062.66;5113467;28;20491;-69
2021/11/10 05:19:52;;;;;;;0.40;0.20;;;;;;;3.15;100.00;102055.25;5113512;28;20435;-70
2021/11/10 05:22:18;;;;;;;0.40;0.20;;;;;;;3.16;100.00;102056.06;5113596;28;20493;-70
2021/11/10 05:24:45;;;;;;;0.40;0.27;;;;;;;3.21;100.00;102059.75;5113495;28;20452;-70
2021/11/10 05:27:11;;;;;;;0.40;0.20;;;;;;;3.21;100.00;102051.72;5113362;28;20462;-69
2021/11/10 05:29:38;;;;;;;0.40;0.30;;;;;;;3.07;100.00;102050.16;5113419;28;20439;-70
2021/11/10 05:32:07;;;;;;;0.40;0.30;;;;;;;3.03;100.00;102065.00;5113352;28;20448;-70
2021/11/10 05:34:35;;;;;;;0.40;0.20;;;;;;;3.11;100.00;102062.06;5113220;28;20496;-69
2021/11/10 05:37:02;;;;;;;0.40;0.30;;;;;;;2.99;100.00;102067.28;5114436;28;20487;-70
2021/11/10 05:39:29;;;;;;;0.40;0.30;;;;;;;2.96;100.00;102062.34;5113783;28;20936;-70
2021/11/10 05:41:55;;;;;;;0.40;0.30;;;;;;;2.99;100.00;102053.06;5114343;28;20488;-70
2021/11/10 05:44:22;;;;;;;0.40;0.20;;;;;;;2.88;100.00;102043.88;5113264;28;20948;-71
2021/11/10 05:46:48;;;;;;;0.40;0.30;;;;;;;2.85;100.00;102049.66;5113553;28;20442;-70
2021/11/10 05:49:16;;;;;;;0.40;0.20;;;;;;;2.77;99.78;102058.72;5113507;28;20448;-70
2021/11/10 05:51:42;;;;;;;0.40;0.20;;;;;;;2.74;99.32;102042.28;5113725;28;20435;-70
2021/11/10 05:54:09;;;;;;;0.50;0.40;;;;;;;2.62;98.63;102039.47;5113390;28;20928;-70
2021/11/10 05:56:39;;;;;;;0.40;0.20;;;;;;;2.58;98.94;102043.59;5113691;28;20470;-70
2021/11/10 05:59:06;;;;;;;0.40;0.30;;;;;;;2.50;99.59;102046.50;5113606;28;20454;-71
2021/11/10 06:01:35;;;;;;;0.40;0.30;;;;;;;2.48;98.97;102043.22;5113302;28;20879;-70
2021/11/10 06:04:01;;;;;;;0.40;0.30;;;;;;;2.49;99.18;102044.88;5113726;28;20440;-68
2021/11/10 06:06:30;;;;;;;0.40;0.30;;;;;;;2.42;99.62;102044.06;5113679;28;20467;-68
2021/11/10 06:08:57;;;;;;;10.20;9.53;;;;;;;2.45;99.83;102047.13;5113743;28;20435;-68
2021/11/10 06:11:23;;;;;;;0.40;0.20;;;;;;;2.40;99.56;102040.78;5113301;28;20440;-70
2021/11/10 06:13:49;;;;;;;0.40;0.20;;;;;;;2.39;100.00;102044.47;5113305;28;20451;-68
2021/11/10 06:16:16;;;;;;;1.67;1.57;;;;;;;2.38;99.33;102040.16;5113556;28;20455;-69
2021/11/10 06:18:42;;;;;;;0.40;0.30;;;;;;;2.34;98.78;102042.44;5113516;28;20480;-69
2021/11/10 06:21:09;;;;;;;0.40;0.20;;;;;;;2.47;99.25;102038.91;5113527;28;20451;-70
2021/11/10 06:23:37;;;;;;;0.40;0.20;;;;;;;2.46;99.22;102034.59;5113595;28;20514;-70
2021/11/10 06:26:04;;;;;;;0.40;0.30;;;;;;;2.52;98.88;102044.41;5113439;28;20470;-70
2021/11/10 06:28:30;;;;;;;0.40;0.30;;;;;;;2.51;97.90;102040.94;5113205;28;20962;-70
2021/11/10 06:30:57;;;;;;;0.40;0.30;;;;;;;2.42;98.96;102044.06;5113202;28;20925;-70
2021/11/10 06:33:23;;;;;;;0.40;0.30;;;;;;;2.40;98.60;102041.59;5113449;28;20492;-69
2021/11/10 06:35:50;;;;;;;0.40;0.30;;;;;;;2.27;100.00;102050.47;5113500;28;20464;-69
2021/11/10 06:38:17;;;;;;;0.40;0.30;;;;;;;2.46;99.94;102050.63;5113303;28;20482;-69
2021/11/10 06:40:44;;;;;;;0.40;0.30;;;;;;;2.38;100.00;102048.19;5112997;28;20941;-70
2021/11/10 06:43:11;;;;;;;0.50;0.40;;;;;;;2.38;100.00;102042.84;5113222;28;20436;-69
2021/11/10 06:45:37;;;;;;;0.40;0.30;;;;;;;2.56;100.00;102040.28;5112726;28;20463;-70
2021/11/10 06:48:04;;;;;;;0.40;0.30;;;;;;;2.59;100.00;102039.06;5112328;28;20471;-69
2021/11/10 06:50:31;;;;;;;1.80;1.70;;;;;;;2.59;100.00;102034.53;5106813;28;20462;-69
2021/11/10 06:52:57;;;;;;;0.40;0.30;;;;;;;2.51;100.00;102034.75;5092893;28;20437;-69
2021/11/10 06:55:24;;;;;;;0.50;0.40;;;;;;;2.60;100.00;102040.69;5093867;28;20452;-69
2021/11/10 06:57:51;;;;;;;0.40;0.30;;;;;;;2.67;100.00;102041.50;5096741;28;20842;-68
2021/11/10 07:00:18;;;;;;;0.60;0.57;;;;;;;2.68;100.00;102041.28;5096341;28;20937;-70
2021/11/10 07:02:45;;;;;;;0.40;0.40;;;;;;;2.72;100.00;102039.00;5096788;28;20544;-72
2021/11/10 07:05:12;;;;;;;0.40;0.30;;;;;;;2.68;100.00;102038.59;5096596;28;20464;-71
2021/11/10 07:07:38;;;;;;;0.40;0.30;;;;;;;2.73;100.00;102040.66;5096631;28;20440;-71
2021/11/10 07:10:06;;;;;;;0.40;0.33;;;;;;;2.64;100.00;102045.41;5096614;28;20447;-71
2021/11/10 07:12:33;;;;;;;0.40;0.30;;;;;;;2.68;100.00;102049.31;5096090;28;20456;-69
2021/11/10 07:15:01;;;;;;;1.80;1.70;;;;;;;2.71;100.00;102040.06;5096103;28;20970;-69
2021/11/10 07:17:28;;;;;;;0.40;0.30;;;;;;;2.81;100.00;102039.59;5096125;28;20476;-69
2021/11/10 07:19:54;;;;;;;0.40;0.30;;;;;;;2.88;100.00;102051.06;5096401;28;20452;-70
2021/11/10 07:22:21;;;;;;;0.40;0.20;;;;;;;2.96;100.00;102064.19;5097016;28;20436;-71
2021/11/10 07:24:47;;;;;;;0.40;0.30;;;;;;;2.94;100.00;102067.09;5096319;28;20517;-73
2021/11/10 07:27:14;;;;;;;0.40;0.30;;;;;;;3.05;100.00;102054.88;5096262;28;20443;-71
2021/11/10 07:29:40;;;;;;;0.40;0.20;;;;;;;3.11;100.00;102054.06;5096103;28;20494;-70
2021/11/10 07:32:09;;;;;;;0.40;0.20;;;;;;;3.17;100.00;102063.88;5095954;28;20440;-71
2021/11/10 07:34:35;;;;;;;0.40;0.30;;;;;;;3.25;100.00;102055.59;5096041;28;20476;-70
2021/11/10 07:37:01;;;;;;;0.53;0.53;;;;;;;3.35;100.00;102051.63;5095927;28;20444;-71
2021/11/10 07:39:30;;;;;;;0.40;0.20;;;;;;;3.45;100.00;102049.28;5095621;28;20929;-71
2021/11/10 07:41:56;;;;;;;0.40;0.30;;;;;;;3.50;100.00;102052.97;5096024;28;20540;-71
2021/11/10 07:44:23;;;;;;;0.40;0.30;;;;;;;3.60;100.00;102063.19;5095865;28;20447;-71
2021/11/10 07:46:52;;;;;;;0.40;0.30;;;;;;;3.79;100.00;102067.56;5095677;28;20870;-71
2021/11/10 07:49:21;;;;;;;1.07;1.07;;;;;;;3.89;100.00;102077.78;5095997;28;20870;-72
2021/11/10 07:51:48;;;;;;;0.50;0.47;;;;;;;4.07;100.00;102082.38;5095969;28;20448;-71
2021/11/10 07:54:15;;;;;;;0.50;0.43;;;;;;;4.16;100.00;102089.13;5095504;28;20448;-71
2021/11/10 07:56:42;;;;;;;0.50;0.33;;;;;;;4.21;100.00;102100.00;5095633;28;20460;-71
2021/11/10 07:59:08;;;;;;;0.40;0.20;;;;;;;4.29;100.00;102091.66;5095317;28;20893;-72
2021/11/10 08:01:35;;;;;;;0.40;0.20;;;;;;;4.46;100.00;102096.44;5095757;28;20448;-72
2021/11/10 08:04:03;;;;;;;0.40;0.30;;;;;;;4.48;100.00;102091.69;5095631;28;20440;-71
2021/11/10 08:06:32;;;;;;;0.40;0.30;;;;;;;4.52;100.00;102087.50;5095330;28;20464;-71
2021/11/10 08:08:58;;;;;;;0.40;0.30;;;;;;;4.62;100.00;102085.13;5095321;28;20816;-71
2021/11/10 08:11:25;;;;;;;4.10;3.80;;;;;;;4.67;100.00;102090.63;5106175;28;20451;-71
2021/11/10 08:13:51;;;;;;;1.23;1.23;;;;;;;4.85;100.00;102086.28;5115372;28;20455;-71
2021/11/10 08:16:18;;;;;;;0.40;0.20;;;;;;;4.95;100.00;102081.19;5115750;28;20466;-72
2021/11/10 08:18:45;;;;;;;1.00;1.00;;;;;;;4.99;100.00;102083.19;5115643;28;20491;-71
2021/11/10 08:21:11;;;;;;;0.40;0.30;;;;;;;5.10;100.00;102088.88;5115655;28;20435;-71
2021/11/10 08:23:39;;;;;;;0.40;0.30;;;;;;;5.16;100.00;102083.41;5115619;28;20447;-71
2021/11/10 08:26:06;;;;;;;0.40;0.27;;;;;;;5.28;100.00;102088.81;5115478;28;20463;-71
2021/11/10 08:28:33;;;;;;;0.43;0.33;;;;;;;5.40;100.00;102087.00;5115598;28;20519;-71
2021/11/10 08:30:59;;;;;;;3.43;2.40;;;;;;;5.48;100.00;102100.09;5115160;28;20527;-72
2021/11/10 08:33:26;;;;;;;0.40;0.30;;;;;;;5.61;100.00;102088.31;5115165;28;20442;-72
2021/11/10 08:35:53;;;;;;;0.40;0.30;;;;;;;5.70;100.00;102089.63;5115291;28;20539;-72
2021/11/10 08:38:20;;;;;;;1.63;1.37;;;;;;;5.76;100.00;102079.84;5114997;28;21000;-71
2021/11/10 08:40:49;;;;;;;0.60;0.60;;;;;;;5.85;100.00;102083.00;5115081;28;20431;-71
2021/11/10 08:43:16;;;;;;;0.40;0.30;;;;;;;5.88;100.00;102077.94;5114914;28;20483;-71
2021/11/10 08:45:46;;;;;;;0.40;0.20;;;;;;;5.94;100.00;102079.75;5115100;28;20463;-72
2021/11/10 08:48:13;;;;;;;0.40;0.27;;;;;;;5.99;100.00;102079.06;5114815;28;20438;-71
2021/11/10 08:50:42;;;;;;;0.40;0.30;;;;;;;6.07;100.00;102079.53;5114716;28;20973;-72
2021/11/10 08:53:10;;;;;;;0.40;0.40;;;;;;;6.16;100.00;102071.94;5114983;28;20439;-69
2021/11/10 08:55:37;;;;;;;0.40;0.20;;;;;;;6.22;100.00;102076.34;5114855;28;20516;-70
2021/11/10 08:58:05;;;;;;;0.40;0.30;;;;;;;6.29;99.74;102077.06;5114784;28;20479;-69
2021/11/10 09:00:37;;;;;;;0.40;0.30;;;;;;;6.32;98.53;102075.75;5114809;28;20436;-71
2021/11/10 09:03:04;;;;;;;0.40;0.20;;;;;;;6.35;98.35;102074.50;5114691;28;20435;-71
2021/11/10 09:05:31;;;;;;;0.40;0.30;;;;;;;6.40;97.70;102058.44;5114715;28;20463;-71
2021/11/10 09:08:00;;;;;;;0.67;0.67;;;;;;;6.40;97.89;102061.13;5114431;28;20937;-71
2021/11/10 09:10:26;;;;;;;0.60;0.60;;;;;;;6.48;97.49;102063.47;5114403;28;20904;-71
2021/11/10 09:12:53;;;;;;;0.40;0.30;;;;;;;6.56;97.22;102065.78;5114018;28;20975;-71
2021/11/10 09:15:23;;;;;;;0.40;0.30;;;;;;;6.65;96.22;102064.38;5114380;28;20466;-71
2021/11/10 09:17:51;;;;;;;0.40;0.30;;;;;;;6.75;95.71;102069.13;5113685;28;20467;-71
2021/11/10 09:20:20;;;;;;;0.40;0.30;;;;;;;6.81;95.03;102069.00;5114469;28;20447;-70
2021/11/10 09:22:47;;;;;;;2.00;1.33;;;;;;;6.86;95.56;102064.75;5114414;28;20436;-72
2021/11/10 09:25:16;;;;;;;0.53;0.53;;;;;;;6.96;95.57;102065.78;5114172;28;20468;-71
2021/11/10 09:27:43;;;;;;;12.30;11.50;;;;;;;7.07;95.24;102061.41;5114188;28;20440;-71
2021/11/10 09:30:12;;;;;;;0.40;0.20;;;;;;;7.13;93.10;102063.16;5114320;28;20817;-68
2021/11/10 09:32:40;;;;;;;0.40;0.30;;;;;;;7.19;91.74;102048.72;5114226;28;20447;-69
2021/11/10 09:35:10;;;;;;;0.40;0.30;;;;;;;7.25;92.32;102050.41;5114050;28;20455;-70
2021/11/10 09:37:37;;;;;;;0.40;0.30;;;;;;;7.33;93.00;102044.63;5114278;28;20513;-68
2021/11/10 09:40:06;;;;;;;0.40;0.30;;;;;;;7.34;93.06;102043.56;5114229;28;20444;-68
2021/11/10 09:42:35;;;;;;;0.40;0.30;;;;;;;7.43;93.04;102044.00;5114064;28;20446;-68
2021/11/10 09:45:02;;;;;;;0.40;0.20;;;;;;;7.50;92.07;102041.16;5113775;28;20917;-68
2021/11/10 09:47:28;;;;;;;2.10;2.00;;;;;;;7.61;91.80;102050.22;5114294;28;20436;-68
2021/11/10 09:49:56;;;;;;;0.50;0.50;;;;;;;7.69;91.05;102045.22;5113924;28;20457;-69
2021/11/10 09:52:23;;;;;;;0.40;0.30;;;;;;;7.73;90.09;102040.97;5113988;28;20440;-69
2021/11/10 09:54:50;;;;;;;0.53;0.53;;;;;;;7.80;90.11;102041.63;5113878;28;20474;-69
2021/11/10 09:57:17;;;;;;;0.40;0.30;;;;;;;7.90;89.71;102040.16;5114014;28;20446;-69
2021/11/10 09:59:44;;;;;;;0.40;0.30;;;;;;;7.97;89.69;102038.94;5113723;28;20830;-71
2021/11/10 10:02:14;;;;;;;0.40;0.30;;;;;;;8.07;89.56;102039.06;5113762;28;20443;-69
2021/11/10 10:04:42;;;;;;;0.40;0.30;;;;;;;8.09;88.34;102034.22;5113687;28;20467;-69
2021/11/10 10:07:11;;;;;;;0.40;0.30;;;;;;;8.10;88.57;102029.66;5113834;28;20446;-69
2021/11/10 10:09:37;;;;;;;0.40;0.30;;;;;;;8.18;88.69;102023.00;5113455;28;20443;-70
2021/11/10 10:12:05;;;;;;;0.40;0.40;;;;;;;8.19;88.48;102025.47;5113282;28;20447;-72
2021/11/10 10:14:32;;;;;;;0.40;0.30;;;;;;;8.31;88.38;102023.47;5113721;28;20424;-69
2021/11/10 10:16:59;;;;;;;0.40;0.30;;;;;;;8.33;84.94;102018.66;5113756;28;20454;-69
2021/11/10 10:19:38;;;;;;;0.40;0.30;;;;;;;8.47;85.36;102012.91;5113608;28;20486;-70
2021/11/10 10:22:05;;;;;;;0.40;0.27;;;;;;;8.67;86.00;102015.81;5113695;28;20434;-69
2021/11/10 10:24:46;;;;;;;0.40;0.30;;;;;;;8.86;85.33;102018.22;5113665;28;20451;-69
2021/11/10 10:27:23;;;;;;;0.40;0.30;;;;;;;8.91;82.02;102021.78;5113629;28;20432;-69
2021/11/10 10:30:11;;;;;;;0.40;0.30;;;;;;;8.99;81.44;102015.13;5115532;28;20442;-69
2021/11/10 10:32:38;;;;;;;0.50;0.47;;;;;;;9.05;81.35;102027.59;5117260;28;20450;-69
2021/11/10 10:35:26;;;;;;;0.40;0.30;;;;;;;9.14;82.39;102028.75;5117950;28;20502;-69
2021/11/10 10:37:53;;;;;;;0.40;0.30;;;;;;;9.31;81.79;102025.97;5117620;28;20416;-69
2021/11/10 10:40:21;;;;;;;0.50;0.40;;;;;;;9.40;80.57;102020.88;5117787;28;20537;-69
2021/11/10 10:42:48;;;;;;;0.40;0.20;;;;;;;9.52;80.81;102018.84;5117430;28;20940;-69
2021/11/10 10:45:26;;;;;;;0.40;0.40;;;;;;;9.63;80.65;102001.59;5117494;28;20467;-70
2021/11/10 10:47:55;;;;;;;0.40;0.30;;;;;;;9.72;81.40;102000.03;5117520;28;20461;-70
2021/11/10 10:50:31;;;;;;;0.40;0.30;;;;;;;9.98;81.65;101992.09;5117470;28;20446;-69
2021/11/10 10:52:57;;;;;;;0.40;0.30;;;;;;;10.19;81.72;101993.81;5117426;28;20451;-70
2021/11/10 10:55:33;;;;;;;0.40;0.30;;;;;;;10.35;77.85;101986.59;5117251;28;20509;-70
2021/11/10 10:58:00;;;;;;;0.40;0.30;;;;;;;10.65;77.37;101998.63;5117106;28;20466;-69
2021/11/10 11:00:29;;;;;;;0.40;0.30;;;;;;;11.07;77.41;101998.47;5116779;28;20471;-69
2021/11/10 11:02:57;;;;;;;0.40;0.23;;;;;;;11.43;72.41;102004.72;5117447;28;20475;-69
2021/11/10 11:05:37;;;;;;;0.40;0.30;;;;;;;11.70;70.19;102001.72;5117018;28;20504;-69
2021/11/10 11:08:25;;;;;;;0.40;0.30;;;;;;;11.65;69.10;102004.44;5117063;28;20439;-69
2021/11/10 11:10:53;;;;;;;0.40;0.30;;;;;;;11.75;69.34;101996.28;5117067;28;20432;-69
2021/11/10 11:13:24;;;;;;;0.40;0.30;;;;;;;11.83;70.12;101994.94;5116578;28;20462;-69
2021/11/10 11:16:04;;;;;;;0.40;0.30;;;;;;;11.77;68.89;101988.66;5116953;28;20466;-69
2021/11/10 11:18:31;;;;;;;0.40;0.30;;;;;;;11.84;69.14;101997.38;5116912;28;20546;-70
2021/11/10 11:20:57;;;;;;;0.40;0.20;;;;;;;12.11;70.13;101997.03;5116672;28;20794;-69
2021/11/10 11:23:42;;;;;;;0.40;0.30;;;;;;;12.76;66.07;101993.50;5116915;28;20436;-69
2021/11/10 11:26:37;;;;;;;0.40;0.30;;;;;;;13.67;63.65;101993.91;5116827;28;20471;-69
2021/11/10 11:29:20;;;;;;;0.40;0.30;;;;;;;14.42;62.39;101987.91;5116652;28;20435;-69
2021/11/10 11:31:47;;;;;;;0.40;0.20;;;;;;;14.85;58.56;101985.97;5116600;28;20845;-70